createdAt,value
2023-07-23T00:00:00.582Z,74.4
2023-07-23T00:01:00.585Z,74.5
2023-07-23T00:02:00.555Z,74.5
2023-07-23T00:03:00.768Z,74.4
2023-07-23T00:04:00.592Z,74.4
2023-07-23T00:05:00.609Z,74.4
2023-07-23T00:06:00.536Z,74.4
2023-07-23T00:07:00.549Z,74.8
2023-07-23T00:08:00.543Z,74.8
2023-07-23T00:09:00.543Z,74.4
2023-07-23T00:10:00.562Z,75.1
2023-07-23T00:11:00.539Z,74.4
2023-07-23T00:12:00.545Z,74.4
2023-07-23T00:13:00.557Z,74.4
2023-07-23T00:14:00.560Z,74.4
2023-07-23T00:15:00.547Z,74.4
2023-07-23T00:16:00.623Z,74.4
2023-07-23T00:17:00.571Z,74.4
2023-07-23T00:18:00.660Z,74.4
2023-07-23T00:19:00.576Z,74.4
2023-07-23T00:20:00.564Z,73.8
2023-07-23T00:21:00.578Z,74.4
2023-07-23T00:22:00.558Z,74.7
2023-07-23T00:23:00.558Z,74.4
2023-07-23T00:24:00.557Z,74.4
2023-07-23T00:25:00.563Z,74.4
2023-07-23T00:26:00.559Z,74.4
2023-07-23T00:27:00.558Z,74.7
2023-07-23T00:28:00.566Z,74.7
2023-07-23T00:29:00.576Z,74.4
2023-07-23T00:30:00.590Z,74.7
2023-07-23T00:31:00.576Z,74.4
2023-07-23T00:32:00.605Z,75
2023-07-23T00:33:00.599Z,73.8
2023-07-23T00:34:00.568Z,74.4
2023-07-23T00:35:00.568Z,74.4
2023-07-23T00:36:00.576Z,74.4
2023-07-23T00:37:00.582Z,74.4
2023-07-23T00:38:00.592Z,74.7
2023-07-23T00:39:00.578Z,74.4
2023-07-23T00:40:00.606Z,74.4
2023-07-23T00:41:00.581Z,74.4
2023-07-23T00:42:00.592Z,74.7
2023-07-23T00:43:00.588Z,74.7
2023-07-23T00:44:00.575Z,74.4
2023-07-23T00:45:00.577Z,74.4
2023-07-23T00:46:00.603Z,74.4
2023-07-23T00:47:00.578Z,74.4
2023-07-23T00:48:00.639Z,74.7
2023-07-23T00:49:00.580Z,75
2023-07-23T00:50:00.617Z,74.7
2023-07-23T00:51:00.604Z,75.4
2023-07-23T00:52:00.594Z,75
2023-07-23T00:53:00.621Z,75
2023-07-23T00:54:00.591Z,75
2023-07-23T00:55:00.614Z,74.7
2023-07-23T00:56:00.633Z,75.1
2023-07-23T00:57:00.598Z,74.7
2023-07-23T00:58:00.587Z,74.4
2023-07-23T00:59:00.595Z,74.7
2023-07-23T01:00:00.663Z,74.7
2023-07-23T01:01:00.665Z,74.4
2023-07-23T01:02:00.607Z,74.1
2023-07-23T01:03:00.656Z,74.4
2023-07-23T01:04:00.692Z,74.1
2023-07-23T01:05:00.606Z,74.4
2023-07-23T01:06:00.619Z,74.7
2023-07-23T01:07:00.619Z,74.7
2023-07-23T01:08:00.596Z,74.4
2023-07-23T01:09:00.599Z,73.8
2023-07-23T01:10:00.641Z,73.8
2023-07-23T01:11:00.606Z,74.4
2023-07-23T01:12:00.654Z,73.8
2023-07-23T01:13:00.613Z,74.4
2023-07-23T01:14:00.605Z,74.4
2023-07-23T01:15:00.632Z,73.8
2023-07-23T01:16:00.644Z,74.4
2023-07-23T01:17:00.611Z,73.8
2023-07-23T01:18:00.649Z,74.4
2023-07-23T01:19:00.698Z,73.8
2023-07-23T01:20:00.649Z,74.4
2023-07-23T01:21:00.658Z,74.4
2023-07-23T01:22:00.616Z,74.4
2023-07-23T01:23:00.628Z,74.4
2023-07-23T01:24:00.633Z,74.4
2023-07-23T01:25:00.623Z,74.4
2023-07-23T01:26:00.622Z,75
2023-07-23T01:27:00.626Z,74.4
2023-07-23T01:28:00.644Z,74.4
2023-07-23T01:29:00.647Z,74.4
2023-07-23T01:30:00.793Z,75
2023-07-23T01:31:00.669Z,75
2023-07-23T01:32:00.651Z,75
2023-07-23T01:33:00.635Z,75
2023-07-23T01:34:00.641Z,75
2023-07-23T01:35:00.629Z,75.3
2023-07-23T01:36:00.685Z,75
2023-07-23T01:37:00.635Z,75
2023-07-23T01:38:00.644Z,75.3
2023-07-23T01:39:00.691Z,75
2023-07-23T01:40:00.644Z,75.3
2023-07-23T01:41:00.650Z,75.6
2023-07-23T01:42:00.665Z,75
2023-07-23T01:43:00.665Z,75.6
2023-07-23T01:44:00.652Z,75.3
2023-07-23T01:45:00.662Z,75.6
2023-07-23T01:46:00.686Z,75.3
2023-07-23T01:47:00.685Z,75.6
2023-07-23T01:48:00.669Z,75.3
2023-07-23T01:49:00.683Z,75
2023-07-23T01:50:00.666Z,75
2023-07-23T01:51:00.660Z,75
2023-07-23T01:52:00.681Z,75.3
2023-07-23T01:53:00.652Z,75.3
2023-07-23T01:54:00.660Z,75.6
2023-07-23T01:55:00.653Z,75.6
2023-07-23T01:56:00.653Z,75.6
2023-07-23T01:57:00.650Z,76.2
2023-07-23T01:58:00.659Z,76.2
2023-07-23T01:59:00.667Z,76.2
2023-07-23T02:00:00.670Z,76.2
2023-07-23T02:01:01.043Z,76.2
2023-07-23T02:02:01.012Z,76.5
2023-07-23T02:03:01.112Z,76.2
2023-07-23T02:04:00.998Z,76.5
2023-07-23T02:05:00.980Z,76.9
2023-07-23T02:06:01.030Z,76.9
2023-07-23T02:07:00.986Z,76.8
2023-07-23T02:08:00.998Z,77.1
2023-07-23T02:09:01.022Z,76.8
2023-07-23T02:10:01.051Z,76.8
2023-07-23T02:11:01.006Z,76.8
2023-07-23T02:12:01.010Z,76.5
2023-07-23T02:13:00.993Z,76.8
2023-07-23T02:14:01.009Z,77.1
2023-07-23T02:15:00.366Z,77.5
2023-07-23T02:16:00.369Z,77.5
2023-07-23T02:17:00.486Z,77.8
2023-07-23T02:18:00.408Z,77.5
2023-07-23T02:19:00.367Z,77.4
2023-07-23T02:20:00.373Z,77.1
2023-07-23T02:21:00.378Z,76.8
2023-07-23T02:22:00.377Z,77.1
2023-07-23T02:23:00.371Z,77.4
2023-07-23T02:24:00.376Z,77.5
2023-07-23T02:25:00.410Z,77.8
2023-07-23T02:26:00.428Z,77.8
2023-07-23T02:27:00.379Z,78.1
2023-07-23T02:28:00.400Z,78.1
2023-07-23T02:29:00.380Z,78.4
2023-07-23T02:30:00.390Z,78.1
2023-07-23T02:31:00.456Z,78.1
2023-07-23T02:32:00.385Z,78.4
2023-07-23T02:33:00.461Z,78.4
2023-07-23T02:34:00.382Z,78.4
2023-07-23T02:35:00.408Z,78.4
2023-07-23T02:36:00.406Z,78.7
2023-07-23T02:37:00.395Z,78.7
2023-07-23T02:38:00.390Z,78.7
2023-07-23T02:39:00.393Z,78.7
2023-07-23T02:40:00.429Z,79
2023-07-23T02:41:00.425Z,79
2023-07-23T02:42:00.406Z,79.3
2023-07-23T02:43:00.393Z,79.3
2023-07-23T02:44:00.394Z,79.3
2023-07-23T02:45:00.398Z,79.3
2023-07-23T02:46:00.442Z,79.3
2023-07-23T02:47:00.401Z,79.6
2023-07-23T02:48:00.455Z,79.3
2023-07-23T02:49:00.405Z,79.3
2023-07-23T02:50:00.421Z,79
2023-07-23T02:51:00.402Z,79.3
2023-07-23T02:52:00.407Z,79.3
2023-07-23T02:53:00.428Z,79.3
2023-07-23T02:54:00.418Z,79.3
2023-07-23T02:55:00.426Z,79.3
2023-07-23T02:56:00.412Z,79.3
2023-07-23T02:57:00.417Z,79.3
2023-07-23T02:58:00.410Z,79.3
2023-07-23T02:59:00.428Z,79
2023-07-23T03:00:00.440Z,79.3
2023-07-23T03:01:00.442Z,79.3
2023-07-23T03:02:00.482Z,79.3
2023-07-23T03:03:00.532Z,79.3
2023-07-23T03:04:00.456Z,79.6
2023-07-23T03:05:00.445Z,79.3
2023-07-23T03:06:00.444Z,79.6
2023-07-23T03:07:00.418Z,79.9
2023-07-23T03:08:00.416Z,79.9
2023-07-23T03:09:00.473Z,79.9
2023-07-23T03:10:00.439Z,79.9
2023-07-23T03:11:00.436Z,79.9
2023-07-23T03:12:00.424Z,79.9
2023-07-23T03:13:00.434Z,80.2
2023-07-23T03:14:00.429Z,80.5
2023-07-23T03:15:00.460Z,80.2
2023-07-23T03:16:00.485Z,80.5
2023-07-23T03:17:00.432Z,80.5
2023-07-23T03:18:00.479Z,80.5
2023-07-23T03:19:00.428Z,80.5
2023-07-23T03:20:00.442Z,80.5
2023-07-23T03:21:00.441Z,80.9
2023-07-23T03:22:00.441Z,80.5
2023-07-23T03:23:00.439Z,80.5
2023-07-23T03:24:00.472Z,80.6
2023-07-23T03:25:00.473Z,80.2
2023-07-23T03:26:00.468Z,80.5
2023-07-23T03:27:00.437Z,80.5
2023-07-23T03:28:00.463Z,80.2
2023-07-23T03:29:00.448Z,79.9
2023-07-23T03:30:00.468Z,80.2
2023-07-23T03:31:00.447Z,80.5
2023-07-23T03:32:00.671Z,79.9
2023-07-23T03:33:00.482Z,79.9
2023-07-23T03:34:00.456Z,80.2
2023-07-23T03:35:00.452Z,79.9
2023-07-23T03:36:00.469Z,79.9
2023-07-23T03:37:00.465Z,80.2
2023-07-23T03:38:00.461Z,80.2
2023-07-23T03:39:00.455Z,80.2
2023-07-23T03:40:00.463Z,80.2
2023-07-23T03:41:00.462Z,80.5
2023-07-23T03:42:00.461Z,79.9
2023-07-23T03:43:00.474Z,80.5
2023-07-23T03:44:00.469Z,80.2
2023-07-23T03:45:00.492Z,80.2
2023-07-23T03:46:00.485Z,80.2
2023-07-23T03:47:00.462Z,80.5
2023-07-23T03:48:00.481Z,80.5
2023-07-23T03:49:00.475Z,80.5
2023-07-23T03:50:00.512Z,80.5
2023-07-23T03:51:00.475Z,80.5
2023-07-23T03:52:00.495Z,80.5
2023-07-23T03:53:00.473Z,80.8
2023-07-23T03:54:00.487Z,80.5
2023-07-23T03:55:00.486Z,80.8
2023-07-23T03:56:00.474Z,80.8
2023-07-23T03:57:00.473Z,81.1
2023-07-23T03:58:00.488Z,81.1
2023-07-23T03:59:00.479Z,81.1
2023-07-23T04:00:00.503Z,81.1
2023-07-23T04:01:00.528Z,81.1
2023-07-23T04:02:00.480Z,81.1
2023-07-23T04:03:00.574Z,81.1
2023-07-23T04:04:00.514Z,81.1
2023-07-23T04:05:00.482Z,80.8
2023-07-23T04:06:00.502Z,80.8
2023-07-23T04:07:00.486Z,81.2
2023-07-23T04:08:00.497Z,81.2
2023-07-23T04:09:00.486Z,81.2
2023-07-23T04:10:00.510Z,81.2
2023-07-23T04:11:00.506Z,81.2
2023-07-23T04:12:00.524Z,81.2
2023-07-23T04:13:00.487Z,81.1
2023-07-23T04:14:00.501Z,81.2
2023-07-23T04:15:00.517Z,81.2
2023-07-23T04:16:00.823Z,81.2
2023-07-23T04:17:00.502Z,81.5
2023-07-23T04:18:00.521Z,81.2
2023-07-23T04:19:00.490Z,81.8
2023-07-23T04:20:00.544Z,81.5
2023-07-23T04:21:00.706Z,81.8
2023-07-23T04:22:00.508Z,81.8
2023-07-23T04:23:00.497Z,81.8
2023-07-23T04:24:00.501Z,81.2
2023-07-23T04:25:00.506Z,81.8
2023-07-23T04:26:00.614Z,81.2
2023-07-23T04:27:00.501Z,81.8
2023-07-23T04:28:00.501Z,81.8
2023-07-23T04:29:00.519Z,82.5
2023-07-23T04:30:00.551Z,81.8
2023-07-23T04:31:00.722Z,81.8
2023-07-23T04:32:00.522Z,82.1
2023-07-23T04:33:00.545Z,81.9
2023-07-23T04:34:00.509Z,82.5
2023-07-23T04:35:00.520Z,82.2
2023-07-23T04:36:00.734Z,82.5
2023-07-23T04:37:00.520Z,82.2
2023-07-23T04:38:00.515Z,82.5
2023-07-23T04:39:00.513Z,81.9
2023-07-23T04:40:00.531Z,81.9
2023-07-23T04:41:00.728Z,81.9
2023-07-23T04:42:00.522Z,81.9
2023-07-23T04:43:00.522Z,81.9
2023-07-23T04:44:00.552Z,81.6
2023-07-23T04:45:00.536Z,81.6
2023-07-23T04:46:00.787Z,82.2
2023-07-23T04:47:00.538Z,81.9
2023-07-23T04:48:00.587Z,81.9
2023-07-23T04:49:00.539Z,81.9
2023-07-23T04:50:00.596Z,82.2
2023-07-23T04:51:00.616Z,82.2
2023-07-23T04:52:00.544Z,82.6
2023-07-23T04:53:00.533Z,82.5
2023-07-23T04:54:00.533Z,81.9
2023-07-23T04:55:00.539Z,82.3
2023-07-23T04:56:00.677Z,81
2023-07-23T04:57:00.542Z,82.6
2023-07-23T04:58:00.568Z,81.9
2023-07-23T04:59:00.548Z,82.6
2023-07-23T05:00:00.648Z,82.6
2023-07-23T05:01:00.904Z,82.6
2023-07-23T05:02:00.555Z,82.6
2023-07-23T05:03:00.601Z,78.8
2023-07-23T05:04:00.610Z,81.7
2023-07-23T05:05:00.551Z,81.4
2023-07-23T05:06:00.817Z,82.3
2023-07-23T05:07:00.551Z,81.4
2023-07-23T05:08:02.140Z,81.4
2023-07-23T05:09:00.548Z,79.8
2023-07-23T05:10:00.630Z,80.2
2023-07-23T05:11:00.821Z,81.4
2023-07-23T05:12:00.575Z,80.8
2023-07-23T05:13:00.567Z,79.9
2023-07-23T05:14:00.599Z,77.7
2023-07-23T05:15:00.567Z,80.2
2023-07-23T05:16:00.766Z,81.5
2023-07-23T05:17:00.567Z,80.2
2023-07-23T05:18:00.564Z,80.2
2023-07-23T05:19:00.564Z,80.6
2023-07-23T05:20:00.653Z,78.3
2023-07-23T05:21:00.778Z,80
2023-07-23T05:22:00.575Z,79.3
2023-07-23T05:23:00.563Z,79.7
2023-07-23T05:24:00.578Z,78.4
2023-07-23T05:25:00.579Z,78.7
2023-07-23T05:26:00.750Z,75.6
2023-07-23T05:27:00.564Z,76.5
2023-07-23T05:28:00.565Z,77.5
2023-07-23T05:29:00.573Z,79.7
2023-07-23T05:30:00.721Z,78.1
2023-07-23T05:31:00.979Z,77.2
2023-07-23T05:32:00.582Z,77.9
2023-07-23T05:33:00.640Z,78.5
2023-07-23T05:34:00.600Z,78.2
2023-07-23T05:35:00.609Z,77.9
2023-07-23T05:36:00.853Z,77.9
2023-07-23T05:37:00.603Z,74.7
2023-07-23T05:38:00.607Z,77.9
2023-07-23T05:39:00.605Z,76.7
2023-07-23T05:40:00.612Z,74.8
2023-07-23T05:41:00.710Z,77
2023-07-23T05:42:00.586Z,78
2023-07-23T05:43:00.682Z,76.1
2023-07-23T05:44:00.594Z,76.7
2023-07-23T05:45:00.605Z,77
2023-07-23T05:46:00.950Z,76.1
2023-07-23T05:47:00.675Z,74.5
2023-07-23T05:48:00.708Z,75.8
2023-07-23T05:49:00.618Z,76.4
2023-07-23T05:50:00.740Z,74.2
2023-07-23T05:51:00.937Z,74.2
2023-07-23T05:52:00.597Z,76.5
2023-07-23T05:53:00.596Z,74.6
2023-07-23T05:54:00.622Z,75.5
2023-07-23T05:55:00.622Z,73
2023-07-23T05:56:01.310Z,72.4
2023-07-23T05:57:00.601Z,74.9
2023-07-23T05:58:00.606Z,73.7
2023-07-23T05:59:00.617Z,73.7
2023-07-23T06:00:00.713Z,74
2023-07-23T06:01:00.855Z,73.1
2023-07-23T06:02:00.612Z,72.7
2023-07-23T06:03:00.692Z,72.4
2023-07-23T06:04:00.631Z,72.1
2023-07-23T06:05:00.683Z,72.8
2023-07-23T06:06:00.757Z,69.3
2023-07-23T06:07:00.685Z,71.9
2023-07-23T06:08:00.645Z,72.8
2023-07-23T06:09:00.648Z,71.6
2023-07-23T06:10:00.706Z,70
2023-07-23T06:11:00.837Z,68.7
2023-07-23T06:12:00.668Z,69.4
2023-07-23T06:13:00.702Z,68.8
2023-07-23T06:14:00.646Z,70
2023-07-23T06:15:00.665Z,67.5
2023-07-23T06:16:00.823Z,68.5
2023-07-23T06:17:00.658Z,67.5
2023-07-23T06:18:00.675Z,66.6
2023-07-23T06:19:00.631Z,66.9
2023-07-23T06:20:00.632Z,66.9
2023-07-23T06:21:00.781Z,65
2023-07-23T06:22:00.640Z,66.3
2023-07-23T06:23:00.627Z,66
2023-07-23T06:24:00.630Z,65.3
2023-07-23T06:25:00.726Z,65.7
2023-07-23T06:26:00.753Z,65.3
2023-07-23T06:27:00.635Z,65
2023-07-23T06:28:00.638Z,65.1
2023-07-23T06:29:00.703Z,65.1
2023-07-23T06:30:00.690Z,65.1
2023-07-23T06:31:00.971Z,63.8
2023-07-23T06:32:00.634Z,63.2
2023-07-23T06:33:00.666Z,63.8
2023-07-23T06:34:00.648Z,63.5
2023-07-23T06:35:02.981Z,63.2
2023-07-23T06:36:00.637Z,62.9
2023-07-23T06:37:00.641Z,62.5
2023-07-23T06:38:00.637Z,62.5
2023-07-23T06:39:00.641Z,61.6
2023-07-23T06:40:00.675Z,61.9
2023-07-23T06:41:00.643Z,61.9
2023-07-23T06:42:00.647Z,62.3
2023-07-23T06:43:00.650Z,62.6
2023-07-23T06:44:00.653Z,61.9
2023-07-23T06:45:00.662Z,62.6
2023-07-23T06:46:00.712Z,61.9
2023-07-23T06:47:00.670Z,60.7
2023-07-23T06:48:00.719Z,62.3
2023-07-23T06:49:00.658Z,60.7
2023-07-23T06:50:00.675Z,60.7
2023-07-23T06:51:00.658Z,60.7
2023-07-23T06:52:00.656Z,62.3
2023-07-23T06:53:02.291Z,61
2023-07-23T06:54:00.670Z,61.3
2023-07-23T06:55:00.658Z,61.3
2023-07-23T06:56:00.658Z,62
2023-07-23T06:57:00.721Z,62
2023-07-23T06:58:00.668Z,60.7
2023-07-23T06:59:00.660Z,61
2023-07-23T07:00:00.743Z,62.6
2023-07-23T07:01:00.675Z,61
2023-07-23T07:02:00.701Z,62
2023-07-23T07:03:00.777Z,61.3
2023-07-23T07:04:00.666Z,61.3
2023-07-23T07:05:00.683Z,61.3
2023-07-23T07:06:00.665Z,62.3
2023-07-23T07:07:00.668Z,61
2023-07-23T07:08:00.690Z,61.3
2023-07-23T07:09:00.704Z,62.3
2023-07-23T07:10:00.691Z,62.3
2023-07-23T07:11:00.682Z,62
2023-07-23T07:12:00.713Z,61.3
2023-07-23T07:13:00.694Z,62.3
2023-07-23T07:14:00.680Z,61.7
2023-07-23T07:15:00.684Z,61.7
2023-07-23T07:16:00.699Z,61.4
2023-07-23T07:17:00.679Z,62
2023-07-23T07:18:00.704Z,61.4
2023-07-23T07:19:00.697Z,60.7
2023-07-23T07:20:00.709Z,60.7
2023-07-23T07:21:00.686Z,60.8
2023-07-23T07:22:00.681Z,60.8
2023-07-23T07:23:00.681Z,60.5
2023-07-23T07:24:00.683Z,60.1
2023-07-23T07:25:00.692Z,60.8
2023-07-23T07:26:00.693Z,60.8
2023-07-23T07:27:00.686Z,60.2
2023-07-23T07:28:00.693Z,59.5
2023-07-23T07:29:00.693Z,59.9
2023-07-23T07:30:01.413Z,59.5
2023-07-23T07:31:00.718Z,60.2
2023-07-23T07:32:00.797Z,59.8
2023-07-23T07:33:00.716Z,58.9
2023-07-23T07:34:00.719Z,58.9
2023-07-23T07:35:00.696Z,58.6
2023-07-23T07:36:00.699Z,59.5
2023-07-23T07:37:00.706Z,59.9
2023-07-23T07:38:00.704Z,59.9
2023-07-23T07:39:01.059Z,59.5
2023-07-23T07:40:00.714Z,57.9
2023-07-23T07:41:00.699Z,58.3
2023-07-23T07:42:00.704Z,58.9
2023-07-23T07:43:00.740Z,58.9
2023-07-23T07:44:00.713Z,59.6
2023-07-23T07:45:00.724Z,59.6
2023-07-23T07:46:00.967Z,58.9
2023-07-23T07:47:00.714Z,59
2023-07-23T07:48:00.767Z,59
2023-07-23T07:49:00.741Z,57
2023-07-23T07:50:00.711Z,57
2023-07-23T07:51:00.712Z,57.7
2023-07-23T07:52:00.712Z,57.7
2023-07-23T07:53:00.734Z,58
2023-07-23T07:54:00.716Z,57.1
2023-07-23T07:55:00.723Z,56.4
2023-07-23T07:56:00.725Z,55.8
2023-07-23T07:57:00.716Z,56.4
2023-07-23T07:58:00.730Z,56.8
2023-07-23T07:59:01.298Z,55.8
2023-07-23T08:00:00.729Z,56.5
2023-07-23T08:01:00.726Z,55.5
2023-07-23T08:02:00.721Z,56.5
2023-07-23T08:03:00.883Z,57.1
2023-07-23T08:04:00.966Z,57.1
2023-07-23T08:05:00.887Z,55.8
2023-07-23T08:06:00.781Z,54.6
2023-07-23T08:07:00.738Z,56.2
2023-07-23T08:08:00.747Z,56.5
2023-07-23T08:09:00.763Z,55.9
2023-07-23T08:10:00.733Z,54.3
2023-07-23T08:11:00.748Z,55.2
2023-07-23T08:12:00.777Z,55.2
2023-07-23T08:13:00.743Z,55.2
2023-07-23T08:14:00.744Z,54
2023-07-23T08:15:00.768Z,54
2023-07-23T08:16:00.750Z,53
2023-07-23T08:17:00.658Z,53.7
2023-07-23T08:18:00.627Z,54
2023-07-23T08:19:00.641Z,55.3
2023-07-23T08:20:00.590Z,52.7
2023-07-23T08:21:00.540Z,52.4
2023-07-23T08:22:00.509Z,51.1
2023-07-23T08:23:00.475Z,52.7
2023-07-23T08:24:00.450Z,52.1
2023-07-23T08:25:00.436Z,52.1
2023-07-23T08:26:00.412Z,52.8
2023-07-23T08:27:00.364Z,52.1
2023-07-23T08:28:00.342Z,52.5
2023-07-23T08:29:00.335Z,51.5
2023-07-23T08:30:00.315Z,52.8
2023-07-23T08:31:00.362Z,52.5
2023-07-23T08:32:00.320Z,51.5
2023-07-23T08:33:00.373Z,48.9
2023-07-23T08:34:00.317Z,49.6
2023-07-23T08:35:00.336Z,50.2
2023-07-23T08:36:00.318Z,51.2
2023-07-23T08:37:00.331Z,50.3
2023-07-23T08:38:00.333Z,49
2023-07-23T08:39:00.321Z,50.3
2023-07-23T08:40:00.325Z,49
2023-07-23T08:41:00.328Z,48.3
2023-07-23T08:42:00.332Z,48.3
2023-07-23T08:43:00.337Z,47.7
2023-07-23T08:44:00.357Z,47.7
2023-07-23T08:45:00.342Z,45.1
2023-07-23T08:46:00.342Z,45.1
2023-07-23T08:47:00.342Z,45.7
2023-07-23T08:48:00.358Z,48.3
2023-07-23T08:49:00.345Z,48.7
2023-07-23T08:50:02.170Z,47
2023-07-23T08:51:00.336Z,47.4
2023-07-23T08:52:00.337Z,49
2023-07-23T08:53:00.342Z,48
2023-07-23T08:54:00.345Z,48.4
2023-07-23T08:55:00.341Z,48.4
2023-07-23T08:56:00.359Z,47.7
2023-07-23T08:57:00.342Z,45.8
2023-07-23T08:58:00.367Z,45.5
2023-07-23T08:59:00.354Z,44.2
2023-07-23T09:00:00.355Z,44.5
2023-07-23T09:01:00.378Z,44.8
2023-07-23T09:02:00.348Z,45.1
2023-07-23T09:03:00.348Z,47.1
2023-07-23T09:04:00.358Z,45.1
2023-07-23T09:05:00.437Z,44.5
2023-07-23T09:06:00.355Z,45.1
2023-07-23T09:07:00.397Z,45.8
2023-07-23T09:08:00.366Z,45.1
2023-07-23T09:09:00.380Z,45.1
2023-07-23T09:10:00.364Z,45.1
2023-07-23T09:11:00.353Z,44.5
2023-07-23T09:12:00.386Z,45.1
2023-07-23T09:13:00.357Z,45.8
2023-07-23T09:14:00.361Z,45.8
2023-07-23T09:15:00.369Z,47
2023-07-23T09:16:01.495Z,45.7
2023-07-23T09:17:00.433Z,46.1
2023-07-23T09:18:00.431Z,47
2023-07-23T09:19:00.367Z,46.4
2023-07-23T09:20:00.404Z,46.4
2023-07-23T09:21:00.367Z,46.1
2023-07-23T09:22:00.367Z,45.1
2023-07-23T09:23:00.370Z,45.7
2023-07-23T09:24:00.372Z,45.7
2023-07-23T09:25:00.399Z,46.7
2023-07-23T09:26:00.396Z,47.3
2023-07-23T09:27:00.375Z,46.7
2023-07-23T09:28:00.383Z,47
2023-07-23T09:29:00.389Z,46.7
2023-07-23T09:30:00.398Z,45.7
2023-07-23T09:31:00.431Z,46.1
2023-07-23T09:32:00.383Z,46.1
2023-07-23T09:33:00.452Z,47
2023-07-23T09:34:00.400Z,46.4
2023-07-23T09:35:00.412Z,45.7
2023-07-23T09:36:00.393Z,46.4
2023-07-23T09:37:00.389Z,46.4
2023-07-23T09:38:00.408Z,47.7
2023-07-23T09:39:00.387Z,47
2023-07-23T09:40:00.395Z,46.4
2023-07-23T09:41:00.403Z,46.4
2023-07-23T09:42:00.391Z,47
2023-07-23T09:43:00.391Z,47.4
2023-07-23T09:44:00.419Z,45.4
2023-07-23T09:45:00.431Z,45.1
2023-07-23T09:46:00.400Z,43.8
2023-07-23T09:47:00.466Z,43.8
2023-07-23T09:48:13.993Z,42.8
2023-07-23T09:49:00.413Z,44.1
2023-07-23T09:50:00.427Z,44.8
2023-07-23T09:51:00.402Z,45.1
2023-07-23T09:52:00.429Z,44.8
2023-07-23T09:53:00.403Z,45.8
2023-07-23T09:54:00.405Z,46.4
2023-07-23T09:55:00.402Z,45.5
2023-07-23T09:56:00.411Z,45.1
2023-07-23T09:57:03.587Z,45.5
2023-07-23T09:58:00.408Z,45.1
2023-07-23T09:59:00.421Z,44.5
2023-07-23T10:00:00.407Z,44.5
2023-07-23T10:01:00.480Z,43.2
2023-07-23T10:02:00.455Z,45.2
2023-07-23T10:03:01.716Z,45.2
2023-07-23T10:04:00.423Z,42.6
2023-07-23T10:05:00.422Z,42.6
2023-07-23T10:06:00.431Z,43.6
2023-07-23T10:07:00.422Z,42.6
2023-07-23T10:08:00.425Z,42.7
2023-07-23T10:09:00.442Z,42.7
2023-07-23T10:10:00.439Z,42.7
2023-07-23T10:11:00.442Z,41.4
2023-07-23T10:12:00.449Z,42.1
2023-07-23T10:13:00.422Z,42.4
2023-07-23T10:14:00.429Z,42.7
2023-07-23T10:15:00.435Z,41.1
2023-07-23T10:16:00.428Z,41.4
2023-07-23T10:17:00.442Z,38.8
2023-07-23T10:18:00.561Z,38.8
2023-07-23T10:19:00.431Z,39.2
2023-07-23T10:20:00.442Z,39.5
2023-07-23T10:21:00.433Z,41.1
2023-07-23T10:22:00.449Z,39.8
2023-07-23T10:23:00.442Z,39.8
2023-07-23T10:24:00.444Z,38.9
2023-07-23T10:25:00.479Z,38.5
2023-07-23T10:26:00.434Z,38.9
2023-07-23T10:27:00.442Z,38.8
2023-07-23T10:28:00.439Z,38.5
2023-07-23T10:29:00.465Z,38.2
2023-07-23T10:30:00.446Z,38.2
2023-07-23T10:31:00.469Z,38.5
2023-07-23T10:32:00.442Z,38.9
2023-07-23T10:33:00.472Z,37.5
2023-07-23T10:34:00.449Z,38.2
2023-07-23T10:35:00.447Z,38.2
2023-07-23T10:36:00.444Z,39.2
2023-07-23T10:37:00.449Z,39.5
2023-07-23T10:38:00.453Z,37.5
2023-07-23T10:39:00.450Z,37.9
2023-07-23T10:40:00.519Z,37.2
2023-07-23T10:41:00.481Z,39.5
2023-07-23T10:42:00.450Z,37.5
2023-07-23T10:43:00.466Z,38.5
2023-07-23T10:44:00.462Z,39.4
2023-07-23T10:45:00.454Z,38.5
2023-07-23T10:46:00.494Z,39.4
2023-07-23T10:47:00.483Z,39.8
2023-07-23T10:48:00.507Z,39.4
2023-07-23T10:49:00.460Z,40.1
2023-07-23T10:50:00.498Z,39.5
2023-07-23T10:51:00.465Z,40.4
2023-07-23T10:52:00.461Z,38.2
2023-07-23T10:53:00.464Z,38.8
2023-07-23T10:54:00.464Z,37.5
2023-07-23T10:55:00.496Z,37.2
2023-07-23T10:56:00.486Z,38.8
2023-07-23T10:57:00.474Z,40.1
2023-07-23T10:58:00.477Z,38.8
2023-07-23T10:59:00.480Z,38.5
2023-07-23T11:00:00.488Z,39.5
2023-07-23T11:01:00.471Z,38.9
2023-07-23T11:02:00.526Z,39.2
2023-07-23T11:03:00.576Z,38.2
2023-07-23T11:04:00.536Z,39.5
2023-07-23T11:05:00.498Z,38.2
2023-07-23T11:06:00.478Z,37.6
2023-07-23T11:07:00.479Z,38.2
2023-07-23T11:08:00.477Z,37.6
2023-07-23T11:09:00.493Z,37.9
2023-07-23T11:10:00.485Z,38.9
2023-07-23T11:11:01.577Z,37.2
2023-07-23T11:12:00.526Z,37.6
2023-07-23T11:13:00.506Z,38.2
2023-07-23T11:14:00.501Z,38.9
2023-07-23T11:15:00.489Z,38.2
2023-07-23T11:16:00.584Z,37.3
2023-07-23T11:17:00.486Z,38.3
2023-07-23T11:18:05.884Z,36.3
2023-07-23T11:19:00.504Z,36.9
2023-07-23T11:20:00.510Z,36.3
2023-07-23T11:21:00.493Z,35.6
2023-07-23T11:22:00.501Z,37.6
2023-07-23T11:23:00.513Z,36
2023-07-23T11:24:00.513Z,34.3
2023-07-23T11:25:00.528Z,35
2023-07-23T11:26:00.525Z,36.3
2023-07-23T11:27:00.502Z,33.7
2023-07-23T11:28:00.501Z,34
2023-07-23T11:29:00.503Z,34
2023-07-23T11:30:00.514Z,35
2023-07-23T11:31:00.578Z,35.6
2023-07-23T11:32:00.506Z,34
2023-07-23T11:33:00.587Z,34
2023-07-23T11:34:00.520Z,33.7
2023-07-23T11:35:00.516Z,33
2023-07-23T11:36:00.523Z,34.3
2023-07-23T11:37:00.549Z,33
2023-07-23T11:38:00.525Z,33.4
2023-07-23T11:39:00.528Z,31.7
2023-07-23T11:40:00.519Z,32.4
2023-07-23T11:41:00.522Z,33
2023-07-23T11:42:00.626Z,32.4
2023-07-23T11:43:00.524Z,33.4
2023-07-23T11:44:00.521Z,33.7
2023-07-23T11:45:00.518Z,31.7
2023-07-23T11:46:00.554Z,32.4
2023-07-23T11:47:00.528Z,33
2023-07-23T11:48:00.584Z,33.4
2023-07-23T11:49:00.523Z,33.7
2023-07-23T11:50:00.537Z,34.4
2023-07-23T11:51:00.529Z,32.7
2023-07-23T11:52:00.564Z,34
2023-07-23T11:53:00.530Z,33.7
2023-07-23T11:54:00.528Z,32.4
2023-07-23T11:55:00.542Z,33.7
2023-07-23T11:56:00.540Z,32.4
2023-07-23T11:57:00.530Z,33.1
2023-07-23T11:58:00.537Z,32.7
2023-07-23T11:59:00.536Z,32.1
2023-07-23T12:00:00.560Z,33.1
2023-07-23T12:01:00.567Z,33.1
2023-07-23T12:02:00.611Z,32.1
2023-07-23T12:03:00.634Z,32.8
2023-07-23T12:04:00.634Z,33.1
2023-07-23T12:05:00.570Z,33.1
2023-07-23T12:06:01.804Z,32.1
2023-07-23T12:07:00.540Z,31.8
2023-07-23T12:08:00.551Z,32.5
2023-07-23T12:09:00.548Z,31.8
2023-07-23T12:10:00.571Z,31.1
2023-07-23T12:11:00.547Z,31.8
2023-07-23T12:12:00.576Z,31.8
2023-07-23T12:13:00.548Z,32.1
2023-07-23T12:14:00.546Z,32.4
2023-07-23T12:15:00.557Z,33.1
2023-07-23T12:16:00.627Z,32.4
2023-07-23T12:17:00.574Z,33.1
2023-07-23T12:18:00.558Z,32.4
2023-07-23T12:19:00.568Z,32.4
2023-07-23T12:20:00.570Z,33.7
2023-07-23T12:21:00.560Z,33.1
2023-07-23T12:22:00.568Z,32.7
2023-07-23T12:23:00.558Z,32.4
2023-07-23T12:24:00.564Z,33.7
2023-07-23T12:25:00.591Z,33
2023-07-23T12:26:00.564Z,33.7
2023-07-23T12:27:00.570Z,34.4
2023-07-23T12:28:00.580Z,34.7
2023-07-23T12:29:00.566Z,34.7
2023-07-23T12:30:00.577Z,34.3
2023-07-23T12:31:00.621Z,35
2023-07-23T12:32:00.591Z,33.7
2023-07-23T12:33:00.576Z,33.7
2023-07-23T12:34:00.592Z,34
2023-07-23T12:35:00.584Z,34.6
2023-07-23T12:36:00.605Z,35.3
2023-07-23T12:37:00.603Z,34.6
2023-07-23T12:38:00.583Z,35
2023-07-23T12:39:00.585Z,36.3
2023-07-23T12:40:00.577Z,36.9
2023-07-23T12:41:00.584Z,35
2023-07-23T12:42:00.589Z,35.3
2023-07-23T12:43:00.577Z,35.6
2023-07-23T12:44:00.587Z,36.3
2023-07-23T12:45:00.601Z,35.6
2023-07-23T12:46:00.666Z,35.6
2023-07-23T12:47:00.593Z,35.6
2023-07-23T12:48:00.634Z,36.6
2023-07-23T12:49:00.593Z,35.9
2023-07-23T12:50:00.627Z,36.3
2023-07-23T12:51:00.603Z,35.3
2023-07-23T12:52:00.592Z,35.6
2023-07-23T12:53:00.591Z,36.6
2023-07-23T12:54:00.599Z,35.6
2023-07-23T12:55:00.653Z,35.6
2023-07-23T12:56:00.600Z,35.6
2023-07-23T12:57:00.605Z,36.6
2023-07-23T12:58:00.603Z,35.6
2023-07-23T12:59:00.596Z,35.6
2023-07-23T13:00:00.658Z,36.3
2023-07-23T13:01:00.641Z,36.3
2023-07-23T13:02:00.600Z,36
2023-07-23T13:03:00.640Z,36
2023-07-23T13:04:00.649Z,36.6
2023-07-23T13:05:00.610Z,35.6
2023-07-23T13:06:00.602Z,35.6
2023-07-23T13:07:00.613Z,35
2023-07-23T13:08:00.600Z,35
2023-07-23T13:09:00.611Z,35.9
2023-07-23T13:10:00.664Z,36.9
2023-07-23T13:11:00.616Z,35.3
2023-07-23T13:12:00.637Z,35.6
2023-07-23T13:13:00.620Z,36.3
2023-07-23T13:14:00.613Z,35.6
2023-07-23T13:15:00.636Z,36.3
2023-07-23T13:16:00.617Z,36.3
2023-07-23T13:17:00.725Z,35.6
2023-07-23T13:18:00.661Z,36.3
2023-07-23T13:19:00.623Z,35.9
2023-07-23T13:20:00.669Z,35.9
2023-07-23T13:21:00.626Z,36.3
2023-07-23T13:22:00.626Z,36.9
2023-07-23T13:23:00.653Z,36
2023-07-23T13:24:00.628Z,36